Time;durP1;ratioP1;P1;durP2;ratioP2;P2;SDS_P1;SDS_P2;PMS_P1;PMS_P2;Temp;Humidity;BMP_temperature;BMP_pressure;BME280_temperature;BME280_humidity;BME280_pressure;Samples;Min_cycle;Max_cycle;Signal;HPM_P1;HPM_P2
2022/12/15 00:40:06;;;;;;;26.40;15.97;;;-9.50;99.90;;;;;;4968242;28;20241;-77
2022/12/15 00:42:31;;;;;;;35.63;19.60;;;-9.40;99.90;;;;;;4969094;28;20231;-79
2022/12/15 00:44:57;;;;;;;33.33;19.13;;;-9.30;99.90;;;;;;4983144;28;20690;-78
2022/12/15 00:47:24;;;;;;;32.57;19.83;;;-9.40;99.90;;;;;;4969394;28;20251;-80
2022/12/15 01:20:19;;;;;;;32.03;17.93;;;-9.60;99.90;;;;;;4967093;28;20208;-78
2022/12/15 01:22:54;;;;;;;33.90;18.90;;;-9.70;99.90;;;;;;4966891;28;20204;-79
2022/12/15 01:25:23;;;;;;;33.20;18.57;;;-9.80;99.90;;;;;;4967266;28;20211;-80
2022/12/15 01:27:49;;;;;;;29.17;17.00;;;-9.80;99.90;;;;;;4968154;28;20550;-77
2022/12/15 01:30:20;;;;;;;31.03;17.97;;;-9.80;99.90;;;;;;4968252;28;20284;-78
2022/12/15 01:32:46;;;;;;;33.83;19.33;;;-9.80;99.90;;;;;;4967019;28;20347;-79
2022/12/15 01:35:12;;;;;;;31.20;17.70;;;-9.90;99.90;;;;;;4967680;28;20187;-78
2022/12/15 01:37:38;;;;;;;26.53;17.13;;;-9.80;99.90;;;;;;4967990;28;20177;-78
2022/12/15 01:42:51;;;;;;;24.93;15.10;;;-9.80;99.90;;;;;;4968215;28;20251;-79
2022/12/15 01:45:23;;;;;;;25.83;14.73;;;-9.80;99.90;;;;;;4967701;28;20227;-78
2022/12/15 01:48:17;;;;;;;21.27;12.77;;;-9.80;99.90;;;;;;4982989;28;20552;-78
2022/12/15 01:50:48;;;;;;;20.77;13.63;;;-9.80;99.90;;;;;;4967069;28;20205;-79
2022/12/15 01:53:14;;;;;;;28.20;15.53;;;-9.60;99.90;;;;;;4966619;28;20247;-79
2022/12/15 01:55:43;;;;;;;19.83;12.43;;;-9.70;99.90;;;;;;4968719;28;20311;-76
2022/12/15 01:58:10;;;;;;;20.90;12.20;;;-9.50;99.90;;;;;;4971627;28;20189;-78
2022/12/15 02:00:35;;;;;;;25.77;14.13;;;-9.50;99.90;;;;;;4967795;28;20884;-78
2022/12/15 02:03:04;;;;;;;24.93;13.17;;;-9.50;99.90;;;;;;4968397;28;20208;-79
2022/12/15 02:05:31;;;;;;;22.93;12.57;;;-9.40;99.90;;;;;;4968860;28;20184;-79
2022/12/15 02:07:58;;;;;;;19.17;12.17;;;-9.50;99.90;;;;;;4983801;28;20276;-79
2022/12/15 02:10:29;;;;;;;21.00;12.80;;;-9.50;99.90;;;;;;4968752;28;20196;-78
2022/12/15 02:13:04;;;;;;;19.73;13.30;;;-9.40;99.90;;;;;;4967812;28;20180;-79
2022/12/15 02:15:42;;;;;;;17.87;11.27;;;-9.40;99.90;;;;;;4969114;28;20192;-79
2022/12/15 02:18:26;;;;;;;20.40;13.00;;;-9.30;99.90;;;;;;4970274;28;20208;-78
2022/12/15 02:21:06;;;;;;;21.20;12.20;;;-9.20;99.90;;;;;;4970172;28;20222;-78
2022/12/15 02:23:41;;;;;;;16.00;10.87;;;-9.30;99.90;;;;;;4967407;28;20614;-79
2022/12/15 02:26:48;;;;;;;17.93;10.80;;;-9.40;99.90;;;;;;4967537;28;20196;-77
2022/12/15 02:29:55;;;;;;;18.43;11.17;;;-9.40;99.90;;;;;;4983389;28;20189;-78
2022/12/15 02:32:29;;;;;;;19.83;11.87;;;-9.40;99.90;;;;;;4968428;28;20718;-79
2022/12/15 02:35:05;;;;;;;18.93;11.87;;;-9.40;99.90;;;;;;4968626;28;20247;-79
2022/12/15 02:37:37;;;;;;;18.40;11.53;;;-9.40;99.90;;;;;;4966999;28;20204;-78
2022/12/15 02:40:05;;;;;;;17.87;11.17;;;-9.30;99.90;;;;;;4969990;28;20666;-78
2022/12/15 02:42:34;;;;;;;18.27;12.00;;;-9.20;99.90;;;;;;4968974;28;20208;-79
2022/12/15 02:45:09;;;;;;;19.60;11.77;;;-9.20;99.90;;;;;;4968071;28;20219;-80
2022/12/15 02:47:45;;;;;;;20.10;12.23;;;-9.10;99.90;;;;;;4968191;28;20191;-79
2022/12/15 02:50:38;;;;;;;19.80;11.97;;;-9.10;99.90;;;;;;4968083;28;20188;-79
2022/12/15 02:53:19;;;;;;;22.03;12.10;;;-9.10;99.90;;;;;;4969947;28;20352;-78
2022/12/15 02:55:56;;;;;;;22.20;12.70;;;-9.10;99.90;;;;;;4971212;28;20199;-79
2022/12/15 02:58:31;;;;;;;18.13;11.67;;;-9.00;99.90;;;;;;4969563;28;20188;-79
2022/12/15 03:01:19;;;;;;;24.73;14.30;;;-9.10;99.90;;;;;;4969067;28;20212;-79
2022/12/15 03:03:47;;;;;;;29.83;15.47;;;-9.10;99.90;;;;;;4967276;28;20229;-79
2022/12/15 03:06:14;;;;;;;27.67;16.27;;;-9.30;99.90;;;;;;4968971;28;20181;-77
2022/12/15 03:08:39;;;;;;;23.77;14.80;;;-9.40;99.90;;;;;;4968656;28;20192;-78
2022/12/15 03:11:05;;;;;;;24.53;14.20;;;-9.60;99.90;;;;;;4968876;28;20199;-79
2022/12/15 03:13:31;;;;;;;19.97;11.97;;;-9.50;99.90;;;;;;4969535;28;20212;-79
2022/12/15 03:15:58;;;;;;;18.87;12.30;;;-9.40;99.90;;;;;;4969715;28;20308;-80
2022/12/15 03:18:23;;;;;;;18.37;11.90;;;-9.30;99.90;;;;;;4970278;28;20205;-79
2022/12/15 03:20:49;;;;;;;18.60;12.30;;;-9.00;99.90;;;;;;4971187;28;20220;-79
2022/12/15 03:23:15;;;;;;;22.83;12.40;;;-9.20;99.90;;;;;;4970298;28;20797;-79
2022/12/15 03:25:43;;;;;;;22.83;12.63;;;-9.10;99.90;;;;;;4969669;28;20280;-78
2022/12/15 03:28:09;;;;;;;20.97;12.37;;;-9.10;99.90;;;;;;4970820;28;20176;-77
2022/12/15 03:30:35;;;;;;;22.10;11.63;;;-9.10;99.90;;;;;;4970545;28;20193;-77
2022/12/15 03:33:00;;;;;;;21.13;12.33;;;-9.00;99.90;;;;;;4969927;28;20217;-78
2022/12/15 03:35:26;;;;;;;18.90;12.00;;;-9.00;99.90;;;;;;4970194;28;20189;-78
2022/12/15 03:37:51;;;;;;;18.70;11.80;;;-9.00;99.90;;;;;;4970119;28;20185;-78
2022/12/15 03:40:17;;;;;;;19.60;11.73;;;-8.90;99.90;;;;;;4969671;28;20185;-79
2022/12/15 03:42:49;;;;;;;19.67;11.90;;;-9.00;99.90;;;;;;4969448;28;21359;-76
2022/12/15 03:45:17;;;;;;;16.30;11.30;;;-9.10;99.90;;;;;;4969409;28;20225;-78
2022/12/15 03:47:43;;;;;;;19.10;12.23;;;-9.20;99.90;;;;;;4969990;28;20185;-78
2022/12/15 03:50:11;;;;;;;19.60;11.80;;;-9.20;99.90;;;;;;4969165;28;20193;-77
2022/12/15 03:52:37;;;;;;;18.60;12.13;;;-9.20;99.90;;;;;;4984482;28;20263;-78
2022/12/15 03:55:03;;;;;;;19.37;11.90;;;-9.20;99.90;;;;;;4969265;28;21630;-77
2022/12/15 03:57:29;;;;;;;22.80;11.77;;;-9.30;99.90;;;;;;4969266;28;20278;-77
2022/12/15 03:59:55;;;;;;;18.40;11.20;;;-9.40;99.90;;;;;;4969360;28;20193;-76
2022/12/15 04:02:20;;;;;;;16.63;10.90;;;-9.40;99.90;;;;;;4967772;28;20259;-79
2022/12/15 04:04:47;;;;;;;19.00;11.13;;;-9.40;99.90;;;;;;4970060;28;20311;-78
2022/12/15 04:07:13;;;;;;;15.50;10.77;;;-9.40;99.90;;;;;;4970120;28;20199;-77
2022/12/15 04:09:38;;;;;;;18.67;11.03;;;-9.40;99.90;;;;;;4969961;28;20655;-77
2022/12/15 04:12:04;;;;;;;15.47;10.50;;;-9.40;99.90;;;;;;4969536;28;20559;-77
2022/12/15 04:14:30;;;;;;;16.60;10.50;;;-9.30;99.90;;;;;;4969271;28;20675;-77
2022/12/15 04:16:55;;;;;;;19.33;11.93;;;-9.40;99.90;;;;;;4969028;28;20234;-78
2022/12/15 04:22:05;;;;;;;20.20;11.87;;;-9.30;99.90;;;;;;4968258;28;20318;-79
2022/12/15 05:32:54;;;;;;;20.80;11.40;;;-8.70;99.90;;;;;;4967855;28;20969;-78
2022/12/15 05:35:20;;;;;;;18.73;11.83;;;-8.80;99.90;;;;;;4967628;28;20216;-78
2022/12/15 05:37:45;;;;;;;19.17;11.60;;;-8.90;99.90;;;;;;4968461;28;20184;-77
2022/12/15 05:40:11;;;;;;;18.33;10.93;;;-9.00;99.90;;;;;;4966454;28;20223;-77
2022/12/15 05:42:37;;;;;;;19.07;11.50;;;-9.00;99.90;;;;;;4969768;28;20574;-79
2022/12/15 05:45:04;;;;;;;29.20;24.80;;;-9.00;99.90;;;;;;4968879;28;20785;-76
2022/12/15 05:47:29;;;;;;;21.57;17.00;;;-8.90;99.90;;;;;;4967670;28;20662;-79
2022/12/15 05:49:55;;;;;;;20.50;13.97;;;-8.80;99.90;;;;;;4967785;28;20197;-78
2022/12/15 05:52:21;;;;;;;21.67;12.83;;;-8.70;99.90;;;;;;4968076;28;20280;-77
2022/12/15 05:54:46;;;;;;;15.60;11.47;;;-8.60;99.90;;;;;;4967117;28;20212;-77
2022/12/15 05:57:12;;;;;;;19.97;12.30;;;-8.60;99.90;;;;;;4968631;28;20592;-78
2022/12/15 05:59:37;;;;;;;17.80;12.77;;;-8.60;99.90;;;;;;4969390;28;20189;-77
2022/12/15 06:02:03;;;;;;;17.73;11.83;;;-8.60;99.90;;;;;;4968828;28;20298;-78
2022/12/15 06:04:29;;;;;;;17.33;10.90;;;-8.60;99.90;;;;;;4968598;28;20213;-77
2022/12/15 06:06:54;;;;;;;17.17;11.27;;;-8.60;99.90;;;;;;4969113;28;20220;-78
2022/12/15 06:09:21;;;;;;;17.00;11.30;;;-8.70;99.90;;;;;;4969156;28;20177;-79
2022/12/15 06:11:46;;;;;;;18.23;11.13;;;-8.60;99.90;;;;;;4968422;28;20180;-79
2022/12/15 06:14:12;;;;;;;18.13;10.93;;;-8.60;99.90;;;;;;4966989;28;20534;-79
2022/12/15 06:16:38;;;;;;;16.67;11.00;;;-8.60;99.90;;;;;;4966033;28;20192;-77
2022/12/15 06:19:03;;;;;;;16.77;10.23;;;-8.70;99.90;;;;;;4969239;28;20196;-79
2022/12/15 06:21:34;;;;;;;15.47;10.60;;;-8.70;99.90;;;;;;4966959;28;20212;-77
2022/12/15 06:24:00;;;;;;;14.47;10.47;;;-8.70;99.90;;;;;;4967771;28;20209;-76
2022/12/15 06:26:39;;;;;;;14.40;9.47;;;-8.70;99.90;;;;;;4967936;28;20311;-80
2022/12/15 06:29:07;;;;;;;14.07;10.03;;;-8.80;99.90;;;;;;4968411;28;20287;-79
2022/12/15 06:31:33;;;;;;;14.53;10.17;;;-8.70;99.90;;;;;;4966739;28;20189;-80
2022/12/15 06:33:59;;;;;;;17.47;11.00;;;-8.70;99.90;;;;;;4966879;28;20216;-79
2022/12/15 06:36:25;;;;;;;15.40;10.17;;;-8.70;99.90;;;;;;4968454;28;20185;-79
2022/12/15 06:38:51;;;;;;;20.47;10.70;;;-8.70;99.90;;;;;;4967748;28;20279;-78
2022/12/15 06:41:20;;;;;;;16.43;10.63;;;-8.70;99.90;;;;;;4968273;28;20205;-78
2022/12/15 06:43:50;;;;;;;17.43;10.63;;;-8.60;99.90;;;;;;4968815;28;20208;-77
2022/12/15 06:46:16;;;;;;;16.30;11.03;;;-8.60;99.90;;;;;;4969912;28;20252;-79
2022/12/15 06:48:44;;;;;;;15.60;10.40;;;-8.60;99.90;;;;;;4970905;28;20315;-79
2022/12/15 06:51:12;;;;;;;17.47;10.67;;;-8.40;99.90;;;;;;4969855;28;20267;-79
2022/12/15 06:53:39;;;;;;;17.70;10.77;;;-8.30;99.90;;;;;;4971044;28;20216;-77
2022/12/15 06:56:12;;;;;;;18.80;11.27;;;-8.40;99.90;;;;;;4971538;28;20180;-79
2022/12/15 06:58:38;;;;;;;16.00;11.07;;;-8.40;99.90;;;;;;4970870;28;20242;-78
2022/12/15 07:01:07;;;;;;;17.00;10.83;;;-8.40;99.90;;;;;;4970349;28;20287;-78
2022/12/15 07:03:34;;;;;;;19.83;11.37;;;-8.30;99.90;;;;;;4970651;28;20205;-80
2022/12/15 07:06:06;;;;;;;17.83;10.77;;;-8.30;99.90;;;;;;4969841;28;20196;-79
2022/12/15 07:08:32;;;;;;;16.83;10.43;;;-8.20;99.90;;;;;;4969125;28;20196;-79
2022/12/15 07:10:58;;;;;;;16.43;10.77;;;-8.10;99.90;;;;;;4970082;28;20260;-79
2022/12/15 07:13:24;;;;;;;17.07;10.97;;;-8.10;99.90;;;;;;4969253;28;20699;-79
2022/12/15 07:15:50;;;;;;;17.20;10.67;;;-8.20;99.90;;;;;;4970632;28;20683;-78
2022/12/15 07:18:16;;;;;;;14.57;10.23;;;-8.30;99.90;;;;;;4970743;28;20340;-79
2022/12/15 07:20:42;;;;;;;15.67;10.00;;;-8.30;99.90;;;;;;4971415;28;20251;-79
2022/12/15 07:23:08;;;;;;;17.33;11.97;;;-8.40;99.90;;;;;;4970464;28;20567;-77
2022/12/15 07:25:38;;;;;;;24.90;15.17;;;-8.40;99.90;;;;;;4970625;28;20185;-79
2022/12/15 07:28:05;;;;;;;20.73;11.87;;;-8.40;99.90;;;;;;4970403;28;20583;-80
2022/12/15 07:30:31;;;;;;;22.50;13.30;;;-8.40;99.90;;;;;;4970040;28;21175;-78
2022/12/15 07:32:57;;;;;;;17.27;11.33;;;-8.30;99.90;;;;;;4969828;28;20239;-80
2022/12/15 07:35:23;;;;;;;18.60;11.47;;;-8.30;99.90;;;;;;4968123;28;20361;-80
2022/12/15 07:37:49;;;;;;;18.27;11.70;;;-8.30;99.90;;;;;;4967573;28;20201;-80
2022/12/15 07:40:15;;;;;;;16.70;11.80;;;-8.20;99.90;;;;;;4969153;28;20192;-78
2022/12/15 07:42:40;;;;;;;21.43;15.20;;;-8.10;99.90;;;;;;4969658;28;20565;-79
2022/12/15 07:45:07;;;;;;;18.53;11.30;;;-8.00;99.90;;;;;;4968866;28;20205;-79
2022/12/15 07:47:32;;;;;;;42.33;29.93;;;-8.00;99.90;;;;;;4970206;28;20185;-79
2022/12/15 07:49:58;;;;;;;32.33;23.00;;;-7.80;99.90;;;;;;4969501;28;20197;-80
2022/12/15 07:52:24;;;;;;;19.67;13.03;;;-7.80;99.90;;;;;;4969516;28;20592;-78
2022/12/15 07:54:50;;;;;;;34.73;23.10;;;-7.80;99.90;;;;;;4968376;28;20348;-77
2022/12/15 07:57:15;;;;;;;24.33;16.20;;;-7.60;99.90;;;;;;4968844;28;20201;-76
2022/12/15 07:59:41;;;;;;;23.87;16.37;;;-7.60;99.90;;;;;;4969974;28;20196;-78
2022/12/15 08:02:11;;;;;;;27.07;18.70;;;-7.50;99.90;;;;;;4968722;28;20213;-77
2022/12/15 08:04:37;;;;;;;19.00;11.63;;;-7.50;99.90;;;;;;4968966;28;20212;-79
2022/12/15 08:07:03;;;;;;;22.13;13.70;;;-7.40;99.90;;;;;;4969269;28;20184;-78
2022/12/15 08:09:30;;;;;;;19.70;13.70;;;-7.40;99.90;;;;;;4969463;28;20674;-78
2022/12/15 08:11:56;;;;;;;17.77;11.87;;;-7.30;99.90;;;;;;4968143;28;20839;-78
2022/12/15 08:14:22;;;;;;;22.97;16.10;;;-7.30;99.90;;;;;;4967907;28;20267;-79
2022/12/15 08:16:47;;;;;;;31.93;21.57;;;-7.00;99.90;;;;;;4969055;28;20744;-79
2022/12/15 08:19:14;;;;;;;19.10;12.30;;;-6.60;99.90;;;;;;4969662;28;20196;-77
2022/12/15 08:21:44;;;;;;;15.67;11.27;;;-6.80;99.90;;;;;;4968637;28;20216;-78
2022/12/15 08:24:10;;;;;;;18.27;11.40;;;-6.70;99.90;;;;;;4969173;28;20340;-79
2022/12/15 08:26:36;;;;;;;20.77;16.33;;;-6.70;99.90;;;;;;4968595;28;20271;-81
2022/12/15 08:29:04;;;;;;;19.07;14.37;;;-6.70;99.90;;;;;;4970089;28;20540;-77
2022/12/15 08:31:32;;;;;;;18.47;12.80;;;-6.70;99.90;;;;;;4970205;28;20185;-77
2022/12/15 08:34:00;;;;;;;27.67;19.17;;;-6.60;99.90;;;;;;4974803;28;20219;-77
2022/12/15 08:36:27;;;;;;;41.10;26.63;;;-6.60;99.90;;;;;;4970135;28;20313;-77
2022/12/15 08:38:55;;;;;;;17.73;12.67;;;-6.50;99.90;;;;;;4971199;28;20200;-77
2022/12/15 08:41:25;;;;;;;19.50;12.07;;;-6.40;99.90;;;;;;4974330;28;20209;-79
2022/12/15 08:43:51;;;;;;;20.40;12.10;;;-6.50;99.90;;;;;;4970104;28;20209;-77
2022/12/15 08:46:23;;;;;;;16.20;11.57;;;-6.60;99.90;;;;;;4970922;28;20191;-77
2022/12/15 08:48:49;;;;;;;17.30;11.43;;;-6.50;99.90;;;;;;4968676;28;20591;-79
2022/12/15 08:51:16;;;;;;;15.97;11.03;;;-6.50;99.90;;;;;;4970597;28;20243;-79
2022/12/15 08:53:42;;;;;;;18.20;12.50;;;-6.60;99.90;;;;;;4970409;28;20247;-75
2022/12/15 08:56:11;;;;;;;15.30;10.37;;;-6.50;99.90;;;;;;4970528;28;20647;-78
2022/12/15 08:58:37;;;;;;;16.13;11.53;;;-6.40;99.90;;;;;;4969195;28;20234;-78
2022/12/15 09:01:08;;;;;;;17.83;11.43;;;-6.50;99.90;;;;;;4971706;28;20682;-77
2022/12/15 09:03:34;;;;;;;17.43;11.23;;;-6.40;99.90;;;;;;4967996;28;20208;-78
2022/12/15 09:06:16;;;;;;;17.20;12.00;;;-6.30;99.90;;;;;;4967803;28;20192;-79
2022/12/15 09:08:42;;;;;;;16.73;11.50;;;-6.30;99.90;;;;;;4968079;28;20209;-77
2022/12/15 09:11:08;;;;;;;17.57;11.53;;;-6.30;99.90;;;;;;4970224;28;20227;-77
2022/12/15 09:13:33;;;;;;;17.80;11.20;;;-6.30;99.90;;;;;;4969874;28;20599;-77
2022/12/15 09:16:01;;;;;;;16.07;10.80;;;-5.00;99.90;;;;;;4971375;28;20196;-78
2022/12/15 09:18:27;;;;;;;15.90;11.67;;;-6.20;99.90;;;;;;4970958;28;20184;-77
2022/12/15 09:20:54;;;;;;;14.93;10.77;;;-6.20;99.90;;;;;;4966743;28;20199;-77
2022/12/15 09:23:20;;;;;;;18.57;10.50;;;-6.10;99.90;;;;;;4967553;28;20638;-80
2022/12/15 09:25:46;;;;;;;16.37;11.27;;;-6.10;99.90;;;;;;4966380;28;20223;-79
2022/12/15 09:28:15;;;;;;;15.33;11.03;;;-6.00;99.90;;;;;;4967120;28;20216;-78
2022/12/15 09:30:41;;;;;;;14.87;10.73;;;-5.90;99.90;;;;;;4967262;28;20711;-78
2022/12/15 09:33:06;;;;;;;17.43;12.17;;;-5.90;99.90;;;;;;4969450;28;20205;-79
2022/12/15 09:35:32;;;;;;;17.37;12.27;;;-5.70;99.90;;;;;;4967383;28;20238;-79
2022/12/15 09:37:57;;;;;;;16.90;11.93;;;-5.50;99.90;;;;;;4969328;28;20184;-79
2022/12/15 09:40:24;;;;;;;16.40;11.63;;;-5.60;99.90;;;;;;4970580;28;20205;-78
2022/12/15 09:42:54;;;;;;;16.60;11.07;;;-5.40;99.90;;;;;;4968841;28;20964;-79
2022/12/15 09:45:36;;;;;;;16.43;11.40;;;-5.30;99.90;;;;;;4967888;28;20235;-77
2022/12/15 09:48:06;;;;;;;17.90;11.80;;;-5.30;99.90;;;;;;4966212;28;20244;-78
2022/12/15 09:50:35;;;;;;;16.27;12.23;;;-5.30;99.90;;;;;;4967633;28;20200;-78
2022/12/15 09:53:02;;;;;;;18.00;12.40;;;-4.90;1.00;;;;;;4968009;28;20291;-78
2022/12/15 09:55:31;;;;;;;18.00;12.07;;;-4.90;1.00;;;;;;4964815;28;20228;-79
2022/12/15 09:58:25;;;;;;;17.10;12.13;;;-4.90;1.00;;;;;;4966106;28;20558;-76
2022/12/15 10:01:37;;;;;;;15.60;11.13;;;-4.70;1.00;;;;;;4967166;28;20656;-78
2022/12/15 10:04:16;;;;;;;19.03;12.33;;;-4.60;1.00;;;;;;4975752;28;20221;-79
2022/12/15 10:06:56;;;;;;;19.63;12.87;;;-4.50;1.00;;;;;;4967061;28;20619;-79
2022/12/15 10:09:28;;;;;;;18.03;12.27;;;-4.40;1.00;;;;;;4967873;28;20181;-78
2022/12/15 10:12:02;;;;;;;20.17;15.27;;;-4.30;1.00;;;;;;4967450;28;20216;-78
2022/12/15 10:14:40;;;;;;;19.70;13.00;;;-4.30;1.00;;;;;;4967745;28;20208;-78
2022/12/15 10:17:23;;;;;;;20.07;16.67;;;-4.10;1.00;;;;;;4966922;28;20181;-78
2022/12/15 10:20:06;;;;;;;19.90;13.53;;;-3.90;1.00;;;;;;4969056;28;20192;-79
2022/12/15 10:22:35;;;;;;;19.07;13.13;;;-3.80;1.00;;;;;;4970917;28;20217;-78
2022/12/15 10:25:14;;;;;;;17.47;12.50;;;-3.60;99.90;;;;;;4971304;28;20240;-79
2022/12/15 10:28:07;;;;;;;17.37;12.00;;;-3.50;99.90;;;;;;4971680;28;20652;-76
2022/12/15 10:30:34;;;;;;;18.13;11.97;;;-3.10;99.90;;;;;;4971156;28;20195;-77
2022/12/15 10:33:21;;;;;;;16.40;11.70;;;-3.30;99.90;;;;;;4971326;28;20181;-79
2022/12/15 10:35:47;;;;;;;17.33;11.80;;;-3.30;99.90;;;;;;4971103;28;20196;-78
2022/12/15 10:38:33;;;;;;;17.47;11.70;;;-3.20;99.90;;;;;;4972969;28;20181;-77
2022/12/15 10:41:02;;;;;;;17.40;12.00;;;-3.20;99.90;;;;;;4968216;28;20189;-77
2022/12/15 10:43:42;;;;;;;20.37;14.53;;;-3.20;99.90;;;;;;4971232;28;20731;-78
2022/12/15 10:46:12;;;;;;;16.50;12.10;;;-3.10;99.90;;;;;;4969775;28;20961;-78
2022/12/15 10:48:42;;;;;;;17.60;12.37;;;-3.10;99.90;;;;;;4971600;28;20771;-77
2022/12/15 10:51:18;;;;;;;16.97;11.33;;;-3.00;99.90;;;;;;4984629;28;20659;-78
2022/12/15 10:53:58;;;;;;;16.80;11.00;;;-2.90;99.90;;;;;;4982786;28;20230;-76
2022/12/15 10:56:27;;;;;;;16.97;11.77;;;-2.80;99.90;;;;;;4970483;28;20232;-78
2022/12/15 10:58:55;;;;;;;17.30;12.60;;;-2.70;99.90;;;;;;4972251;28;20193;-78
2022/12/15 11:01:26;;;;;;;15.10;10.90;;;-2.60;99.90;;;;;;4968999;28;20233;-79
2022/12/15 11:03:53;;;;;;;16.97;11.60;;;-2.60;99.90;;;;;;4971712;28;20316;-79
2022/12/15 11:06:25;;;;;;;14.50;11.17;;;-2.50;99.90;;;;;;4971473;28;20196;-78
2022/12/15 11:08:55;;;;;;;16.03;11.33;;;-2.40;99.90;;;;;;4970609;28;20185;-76
2022/12/15 11:14:42;;;;;;;16.73;10.53;;;-2.40;99.90;;;;;;4971303;28;20344;-78
2022/12/15 11:17:08;;;;;;;16.43;11.33;;;-2.40;99.90;;;;;;4970437;28;20733;-78
2022/12/15 11:19:45;;;;;;;32.77;26.00;;;-2.40;99.90;;;;;;4970638;28;20192;-79
2022/12/15 11:22:41;;;;;;;17.07;12.50;;;-2.30;99.90;;;;;;4970752;28;20222;-78
2022/12/15 11:25:21;;;;;;;17.37;11.57;;;-2.20;99.90;;;;;;4969688;28;20197;-78
2022/12/15 11:27:49;;;;;;;15.50;11.20;;;-2.00;99.90;;;;;;4969264;28;20184;-78
2022/12/15 11:30:18;;;;;;;18.93;10.93;;;-2.00;99.90;;;;;;4971346;28;20621;-78
2022/12/15 11:32:47;;;;;;;17.03;10.53;;;-2.00;99.90;;;;;;4967882;28;20188;-78
2022/12/15 11:35:17;;;;;;;14.50;10.60;;;-2.10;99.90;;;;;;4968555;28;20185;-78
2022/12/15 11:37:46;;;;;;;16.40;11.43;;;-1.80;99.90;;;;;;4970746;28;20188;-80
2022/12/15 11:40:42;;;;;;;16.80;10.43;;;-2.20;99.90;;;;;;4973623;28;20224;-77
2022/12/15 11:43:17;;;;;;;19.30;10.83;;;-2.30;99.90;;;;;;4984861;28;20212;-79
2022/12/15 11:45:54;;;;;;;14.20;10.93;;;-2.20;99.90;;;;;;4969829;28;20180;-79
2022/12/15 11:48:26;;;;;;;23.27;16.63;;;-2.10;99.90;;;;;;4969140;28;20187;-80
2022/12/15 11:50:55;;;;;;;20.17;15.20;;;-2.00;99.90;;;;;;4967188;28;20989;-79
2022/12/15 11:53:45;;;;;;;14.80;11.27;;;-2.00;99.90;;;;;;4969445;28;20224;-80
2022/12/15 11:56:22;;;;;;;13.97;10.07;;;-2.00;99.90;;;;;;4968117;28;20255;-78
2022/12/15 11:59:06;;;;;;;17.47;11.23;;;-1.90;99.90;;;;;;4967671;28;20651;-76
2022/12/15 12:02:01;;;;;;;14.73;10.10;;;-1.90;99.90;;;;;;4968640;28;20239;-78
2022/12/15 12:04:36;;;;;;;13.80;10.83;;;-1.90;99.90;;;;;;4984686;28;20212;-79
2022/12/15 12:07:29;;;;;;;15.60;11.20;;;-1.90;99.90;;;;;;4968497;28;20241;-79
2022/12/15 12:10:15;;;;;;;14.57;10.67;;;-1.90;99.90;;;;;;4970896;28;20218;-75
2022/12/15 12:12:46;;;;;;;13.27;9.50;;;-2.00;99.90;;;;;;4969767;28;20255;-78
2022/12/15 12:15:11;;;;;;;14.20;10.00;;;-1.90;99.90;;;;;;4969870;28;20189;-78
2022/12/15 12:17:57;;;;;;;11.93;8.63;;;-1.80;99.90;;;;;;4969056;28;20613;-76
2022/12/15 12:20:25;;;;;;;13.00;9.07;;;-1.60;99.90;;;;;;4969437;28;20196;-76
2022/12/15 12:23:01;;;;;;;12.23;8.90;;;-1.70;99.90;;;;;;4968587;28;20216;-77
2022/12/15 12:25:29;;;;;;;14.33;9.23;;;-1.60;99.90;;;;;;4986386;28;20181;-79
2022/12/15 12:28:01;;;;;;;13.93;9.63;;;-1.60;99.90;;;;;;4971058;28;20189;-78
2022/12/15 12:30:33;;;;;;;14.00;9.47;;;-1.70;99.90;;;;;;4970697;28;20185;-78
2022/12/15 12:33:23;;;;;;;13.97;9.53;;;-1.70;99.90;;;;;;4970652;28;20199;-78
2022/12/15 12:35:54;;;;;;;13.30;9.33;;;-1.80;99.90;;;;;;4970366;28;20684;-77
2022/12/15 12:38:30;;;;;;;14.83;9.70;;;-1.80;99.90;;;;;;4968033;28;20187;-78
2022/12/15 12:41:05;;;;;;;15.57;10.47;;;-1.70;99.90;;;;;;4966415;28;20858;-77
2022/12/15 12:43:51;;;;;;;16.20;10.50;;;-1.80;99.90;;;;;;4967423;28;20208;-79
2022/12/15 12:46:28;;;;;;;12.77;9.50;;;-1.70;99.90;;;;;;4966557;28;20185;-78
2022/12/15 12:48:58;;;;;;;13.57;9.10;;;-1.70;99.90;;;;;;4967545;28;20180;-76
2022/12/15 12:51:30;;;;;;;15.30;9.37;;;-1.80;99.90;;;;;;4968580;28;20218;-78
2022/12/15 12:53:57;;;;;;;13.23;8.63;;;-1.70;99.90;;;;;;4966160;28;20307;-78
2022/12/15 12:56:43;;;;;;;12.93;8.47;;;-1.70;99.90;;;;;;4968071;28;20181;-78
2022/12/15 12:59:29;;;;;;;17.27;9.77;;;-1.60;99.90;;;;;;4968377;28;20192;-77
2022/12/15 13:02:21;;;;;;;12.93;8.60;;;-1.60;99.90;;;;;;4968593;28;21145;-77
2022/12/15 13:05:03;;;;;;;14.63;9.30;;;-1.50;99.90;;;;;;4968840;28;20300;-78
2022/12/15 13:07:39;;;;;;;14.43;9.73;;;-1.40;99.90;;;;;;4967966;28;20271;-79
2022/12/15 13:10:07;;;;;;;13.03;8.37;;;-1.40;99.90;;;;;;4969295;28;20564;-78
2022/12/15 13:12:47;;;;;;;12.97;9.60;;;-1.40;99.90;;;;;;4966833;28;20313;-75
2022/12/15 13:15:28;;;;;;;11.10;8.87;;;-1.20;99.90;;;;;;4966661;28;20177;-78
2022/12/15 13:17:59;;;;;;;13.53;9.63;;;-1.50;99.90;;;;;;4966246;28;20188;-78
2022/12/15 13:20:36;;;;;;;12.77;8.70;;;-1.50;99.90;;;;;;4967137;28;20267;-78
2022/12/15 13:23:20;;;;;;;13.00;8.37;;;-1.60;99.90;;;;;;4966831;28;20204;-78
2022/12/15 13:25:52;;;;;;;12.23;8.37;;;-1.70;99.90;;;;;;4965390;28;20195;-79
2022/12/15 13:28:26;;;;;;;11.97;8.47;;;-1.70;99.90;;;;;;4967556;28;20165;-78
2022/12/15 13:31:19;;;;;;;13.03;8.80;;;-1.70;99.90;;;;;;4967417;28;20209;-78
2022/12/15 13:33:48;;;;;;;13.53;9.30;;;-1.80;99.90;;;;;;4981758;28;20595;-76
2022/12/15 13:36:35;;;;;;;15.53;9.40;;;-1.70;99.90;;;;;;4965901;28;20211;-78
2022/12/15 13:39:13;;;;;;;15.83;10.30;;;-1.70;99.90;;;;;;4965865;28;20177;-78
2022/12/15 13:41:41;;;;;;;13.63;9.40;;;-1.70;99.90;;;;;;4967309;28;20204;-78
2022/12/15 13:46:46;;;;;;;13.80;9.07;;;-1.80;99.90;;;;;;5799496;22;20245;-78
2022/12/15 13:49:21;;;;;;;13.63;10.13;;;-1.80;99.90;;;;;;5009941;28;20274;-78
2022/12/15 13:51:47;;;;;;;16.30;10.37;;;-1.90;99.90;;;;;;5028920;28;20248;-78
2022/12/15 13:54:30;;;;;;;16.83;10.53;;;-2.10;99.90;;;;;;5013934;28;20183;-81
2022/12/15 13:57:09;;;;;;;14.70;9.67;;;-2.10;99.90;;;;;;5013925;28;20242;-80
2022/12/15 13:59:45;;;;;;;12.47;8.10;;;-2.10;1.00;;;;;;5007775;28;20282;-79
2022/12/15 14:02:26;;;;;;;16.67;9.80;;;-2.20;99.90;;;;;;5007735;28;20759;-80
2022/12/15 14:05:18;;;;;;;13.93;9.33;;;-2.30;1.00;;;;;;5004794;28;20193;-79
2022/12/15 14:07:49;;;;;;;11.20;8.63;;;-2.30;1.00;;;;;;5006424;28;20199;-77
2022/12/15 14:10:40;;;;;;;14.80;9.17;;;-2.40;1.00;;;;;;5004336;28;20357;-79
2022/12/15 14:13:18;;;;;;;13.20;8.77;;;-2.50;1.00;;;;;;4993801;28;20195;-77
2022/12/15 14:15:51;;;;;;;12.77;8.30;;;-2.50;1.00;;;;;;5007443;28;20653;-81
2022/12/15 14:18:31;;;;;;;14.17;9.07;;;-2.50;1.00;;;;;;5005301;28;20180;-77
2022/12/15 14:20:58;;;;;;;14.77;9.77;;;-2.50;1.00;;;;;;5005129;28;20175;-77
2022/12/15 14:23:29;;;;;;;14.47;9.63;;;-2.60;1.00;;;;;;5004905;28;20614;-78
2022/12/15 14:26:15;;;;;;;20.20;9.70;;;-2.70;1.00;;;;;;5021098;28;20258;-81
2022/12/15 14:28:44;;;;;;;14.97;9.50;;;-2.70;1.00;;;;;;5007280;28;20199;-81
2022/12/15 14:31:19;;;;;;;15.13;8.50;;;-2.80;1.00;;;;;;5006138;28;20271;-79
2022/12/15 14:33:48;;;;;;;14.03;9.17;;;-2.90;1.00;;;;;;5005322;28;20188;-82
2022/12/15 14:36:16;;;;;;;12.20;8.63;;;-2.90;1.00;;;;;;5007020;28;20211;-79
2022/12/15 14:38:49;;;;;;;12.67;8.30;;;-3.00;1.00;;;;;;5022282;28;20286;-79
2022/12/15 14:41:22;;;;;;;11.10;8.20;;;-2.70;1.00;;;;;;5004147;28;20289;-78
2022/12/15 14:43:49;;;;;;;13.67;8.53;;;-3.10;1.00;;;;;;5006368;28;20190;-80
2022/12/15 14:46:18;;;;;;;13.83;8.60;;;-3.20;1.00;;;;;;5005717;28;20211;-77
2022/12/15 14:48:56;;;;;;;13.10;8.50;;;-3.20;1.00;;;;;;5003519;28;20198;-79
2022/12/15 14:51:25;;;;;;;13.47;7.87;;;-3.30;1.00;;;;;;5003344;28;20202;-77
2022/12/15 14:53:52;;;;;;;11.57;7.97;;;-3.40;1.00;;;;;;5001377;28;20188;-76
2022/12/15 14:56:25;;;;;;;13.20;8.07;;;-3.50;1.00;;;;;;5005409;28;20207;-79
2022/12/15 14:58:58;;;;;;;14.40;7.97;;;-3.50;1.00;;;;;;5004414;28;20277;-79
2022/12/15 15:01:33;;;;;;;15.23;8.07;;;-3.50;1.00;;;;;;5006818;28;20211;-77
2022/12/15 15:04:05;;;;;;;11.33;7.73;;;-3.50;1.00;;;;;;5004932;28;20190;-79
2022/12/15 15:06:41;;;;;;;12.00;7.87;;;-3.60;1.00;;;;;;5008139;28;20211;-80
2022/12/15 15:09:28;;;;;;;10.50;7.00;;;-3.60;1.00;;;;;;5004638;28;20187;-75
2022/12/15 15:12:16;;;;;;;11.93;7.33;;;-3.60;1.00;;;;;;5002813;28;20191;-80
2022/12/15 15:14:52;;;;;;;10.50;7.00;;;-3.80;1.00;;;;;;5003377;28;20245;-78
2022/12/15 15:17:34;;;;;;;11.53;8.77;;;-3.80;1.00;;;;;;5005856;28;20708;-81
2022/12/15 15:20:16;;;;;;;12.40;8.43;;;-3.80;1.00;;;;;;5003206;28;21001;-78
2022/12/15 15:22:44;;;;;;;12.27;8.17;;;-3.90;3.20;;;;;;5003834;28;20214;-81